sensor_id;sensor_type;location;lat;lon;timestamp;P1;durP1;ratioP1;P2;durP2;ratioP2
56927;SDS011;60850;52.502;13.426;2023-04-23T00:01:23;10.55;;;8.10;;
56927;SDS011;60850;52.502;13.426;2023-04-23T00:03:59;10.63;;;8.50;;
56927;SDS011;60850;52.502;13.426;2023-04-23T00:06:27;11.80;;;9.27;;
56927;SDS011;60850;52.502;13.426;2023-04-23T00:08:54;10.95;;;8.70;;
56927;SDS011;60850;52.502;13.426;2023-04-23T00:11:25;13.80;;;9.63;;
56927;SDS011;60850;52.502;13.426;2023-04-23T00:13:53;22.92;;;12.20;;
56927;SDS011;60850;52.502;13.426;2023-04-23T00:16:20;18.50;;;12.13;;
56927;SDS011;60850;52.502;13.426;2023-04-23T00:18:50;12.65;;;9.63;;
56927;SDS011;60850;52.502;13.426;2023-04-23T00:21:17;15.38;;;9.57;;
56927;SDS011;60850;52.502;13.426;2023-04-23T00:23:44;12.10;;;8.77;;
56927;SDS011;60850;52.502;13.426;2023-04-23T00:26:11;11.75;;;8.68;;
56927;SDS011;60850;52.502;13.426;2023-04-23T00:28:45;11.27;;;8.63;;
56927;SDS011;60850;52.502;13.426;2023-04-23T00:31:13;12.82;;;9.10;;
56927;SDS011;60850;52.502;13.426;2023-04-23T00:33:39;16.00;;;9.10;;
56927;SDS011;60850;52.502;13.426;2023-04-23T00:36:08;13.40;;;8.65;;
56927;SDS011;60850;52.502;13.426;2023-04-23T00:38:35;14.05;;;9.52;;
56927;SDS011;60850;52.502;13.426;2023-04-23T00:41:02;14.90;;;9.07;;
56927;SDS011;60850;52.502;13.426;2023-04-23T00:43:30;10.80;;;8.30;;
56927;SDS011;60850;52.502;13.426;2023-04-23T00:45:58;15.02;;;9.23;;
56927;SDS011;60850;52.502;13.426;2023-04-23T00:48:25;12.75;;;8.30;;
56927;SDS011;60850;52.502;13.426;2023-04-23T00:50:56;12.75;;;8.27;;
56927;SDS011;60850;52.502;13.426;2023-04-23T00:53:25;12.73;;;8.40;;
56927;SDS011;60850;52.502;13.426;2023-04-23T00:55:52;13.00;;;8.65;;
56927;SDS011;60850;52.502;13.426;2023-04-23T00:58:20;12.50;;;8.88;;
56927;SDS011;60850;52.502;13.426;2023-04-23T01:00:48;16.33;;;9.23;;
56927;SDS011;60850;52.502;13.426;2023-04-23T01:03:16;18.55;;;11.00;;
56927;SDS011;60850;52.502;13.426;2023-04-23T01:05:46;13.00;;;8.38;;
56927;SDS011;60850;52.502;13.426;2023-04-23T01:08:14;23.38;;;12.20;;
56927;SDS011;60850;52.502;13.426;2023-04-23T01:10:44;23.83;;;13.57;;
56927;SDS011;60850;52.502;13.426;2023-04-23T01:13:12;18.33;;;11.40;;
56927;SDS011;60850;52.502;13.426;2023-04-23T01:15:40;16.45;;;10.38;;
56927;SDS011;60850;52.502;13.426;2023-04-23T01:18:07;14.82;;;9.32;;
56927;SDS011;60850;52.502;13.426;2023-04-23T01:20:35;20.05;;;12.10;;
56927;SDS011;60850;52.502;13.426;2023-04-23T01:23:04;16.15;;;9.88;;
56927;SDS011;60850;52.502;13.426;2023-04-23T01:25:32;18.33;;;10.80;;
56927;SDS011;60850;52.502;13.426;2023-04-23T01:27:59;15.90;;;11.15;;
56927;SDS011;60850;52.502;13.426;2023-04-23T01:30:28;18.02;;;11.90;;
56927;SDS011;60850;52.502;13.426;2023-04-23T01:32:55;16.23;;;10.93;;
56927;SDS011;60850;52.502;13.426;2023-04-23T01:35:24;16.27;;;10.57;;
56927;SDS011;60850;52.502;13.426;2023-04-23T01:37:51;17.65;;;10.13;;
56927;SDS011;60850;52.502;13.426;2023-04-23T01:40:21;15.43;;;10.00;;
56927;SDS011;60850;52.502;13.426;2023-04-23T01:42:48;12.77;;;9.02;;
56927;SDS011;60850;52.502;13.426;2023-04-23T01:45:16;13.23;;;9.70;;
56927;SDS011;60850;52.502;13.426;2023-04-23T01:47:44;14.70;;;9.90;;
56927;SDS011;60850;52.502;13.426;2023-04-23T01:50:12;13.57;;;10.02;;
56927;SDS011;60850;52.502;13.426;2023-04-23T01:52:40;20.85;;;10.25;;
56927;SDS011;60850;52.502;13.426;2023-04-23T01:55:09;14.77;;;9.57;;
56927;SDS011;60850;52.502;13.426;2023-04-23T01:57:37;13.50;;;9.25;;
56927;SDS011;60850;52.502;13.426;2023-04-23T02:00:05;12.80;;;9.07;;
56927;SDS011;60850;52.502;13.426;2023-04-23T02:02:35;12.93;;;8.90;;
56927;SDS011;60850;52.502;13.426;2023-04-23T02:05:03;12.15;;;9.05;;
56927;SDS011;60850;52.502;13.426;2023-04-23T02:07:35;12.93;;;8.57;;
56927;SDS011;60850;52.502;13.426;2023-04-23T02:10:03;10.00;;;8.27;;
56927;SDS011;60850;52.502;13.426;2023-04-23T02:12:31;14.57;;;9.13;;
56927;SDS011;60850;52.502;13.426;2023-04-23T02:14:59;13.40;;;9.50;;
56927;SDS011;60850;52.502;13.426;2023-04-23T02:17:26;13.35;;;8.68;;
56927;SDS011;60850;52.502;13.426;2023-04-23T02:19:54;15.30;;;9.68;;
56927;SDS011;60850;52.502;13.426;2023-04-23T02:22:21;16.65;;;9.90;;
56927;SDS011;60850;52.502;13.426;2023-04-23T02:24:49;15.27;;;10.10;;
56927;SDS011;60850;52.502;13.426;2023-04-23T02:27:16;15.45;;;10.10;;
56927;SDS011;60850;52.502;13.426;2023-04-23T02:29:44;15.05;;;10.52;;
56927;SDS011;60850;52.502;13.426;2023-04-23T02:32:12;14.63;;;11.30;;
56927;SDS011;60850;52.502;13.426;2023-04-23T02:34:39;14.35;;;10.52;;
56927;SDS011;60850;52.502;13.426;2023-04-23T02:37:06;16.33;;;10.77;;
56927;SDS011;60850;52.502;13.426;2023-04-23T02:39:33;18.52;;;11.60;;
56927;SDS011;60850;52.502;13.426;2023-04-23T02:42:03;14.32;;;10.23;;
56927;SDS011;60850;52.502;13.426;2023-04-23T02:44:30;13.80;;;10.77;;
56927;SDS011;60850;52.502;13.426;2023-04-23T02:46:57;17.67;;;11.07;;
56927;SDS011;60850;52.502;13.426;2023-04-23T02:49:25;18.02;;;11.45;;
56927;SDS011;60850;52.502;13.426;2023-04-23T02:51:52;16.20;;;11.38;;
56927;SDS011;60850;52.502;13.426;2023-04-23T02:54:19;14.35;;;10.75;;
56927;SDS011;60850;52.502;13.426;2023-04-23T02:56:46;16.15;;;10.82;;
56927;SDS011;60850;52.502;13.426;2023-04-23T02:59:14;14.00;;;11.32;;
56927;SDS011;60850;52.502;13.426;2023-04-23T03:01:40;15.20;;;11.07;;
56927;SDS011;60850;52.502;13.426;2023-04-23T03:04:08;15.93;;;11.32;;
56927;SDS011;60850;52.502;13.426;2023-04-23T03:06:36;15.13;;;11.40;;
56927;SDS011;60850;52.502;13.426;2023-04-23T03:09:03;16.10;;;12.32;;
56927;SDS011;60850;52.502;13.426;2023-04-23T03:11:30;16.55;;;10.88;;
56927;SDS011;60850;52.502;13.426;2023-04-23T03:13:57;15.23;;;11.35;;
56927;SDS011;60850;52.502;13.426;2023-04-23T03:16:25;17.05;;;11.90;;
56927;SDS011;60850;52.502;13.426;2023-04-23T03:18:52;15.10;;;11.00;;
56927;SDS011;60850;52.502;13.426;2023-04-23T03:21:19;15.38;;;11.05;;
56927;SDS011;60850;52.502;13.426;2023-04-23T03:23:48;14.50;;;10.65;;
56927;SDS011;60850;52.502;13.426;2023-04-23T03:26:15;16.85;;;11.57;;
56927;SDS011;60850;52.502;13.426;2023-04-23T03:28:42;12.48;;;9.93;;
56927;SDS011;60850;52.502;13.426;2023-04-23T03:31:09;17.30;;;10.82;;
56927;SDS011;60850;52.502;13.426;2023-04-23T03:33:36;13.57;;;11.00;;
56927;SDS011;60850;52.502;13.426;2023-04-23T03:36:03;13.23;;;10.55;;
56927;SDS011;60850;52.502;13.426;2023-04-23T03:38:31;14.38;;;10.88;;
56927;SDS011;60850;52.502;13.426;2023-04-23T03:40:59;14.40;;;11.27;;
56927;SDS011;60850;52.502;13.426;2023-04-23T03:43:26;15.18;;;10.98;;
56927;SDS011;60850;52.502;13.426;2023-04-23T03:45:53;17.75;;;12.00;;
56927;SDS011;60850;52.502;13.426;2023-04-23T03:48:20;18.38;;;11.82;;
56927;SDS011;60850;52.502;13.426;2023-04-23T03:50:47;14.10;;;11.10;;
56927;SDS011;60850;52.502;13.426;2023-04-23T03:53:14;15.00;;;11.25;;
56927;SDS011;60850;52.502;13.426;2023-04-23T03:55:42;16.05;;;11.82;;
56927;SDS011;60850;52.502;13.426;2023-04-23T03:58:10;18.30;;;12.07;;
56927;SDS011;60850;52.502;13.426;2023-04-23T04:00:37;16.58;;;12.02;;
56927;SDS011;60850;52.502;13.426;2023-04-23T04:03:04;19.65;;;12.10;;
56927;SDS011;60850;52.502;13.426;2023-04-23T04:05:32;17.67;;;12.77;;
56927;SDS011;60850;52.502;13.426;2023-04-23T04:07:59;16.33;;;12.68;;
56927;SDS011;60850;52.502;13.426;2023-04-23T04:10:27;20.73;;;12.38;;
56927;SDS011;60850;52.502;13.426;2023-04-23T04:12:54;20.90;;;12.27;;
56927;SDS011;60850;52.502;13.426;2023-04-23T04:15:22;15.82;;;12.63;;
56927;SDS011;60850;52.502;13.426;2023-04-23T04:17:49;18.92;;;12.65;;
56927;SDS011;60850;52.502;13.426;2023-04-23T04:20:16;16.63;;;12.63;;
56927;SDS011;60850;52.502;13.426;2023-04-23T04:22:43;18.38;;;12.55;;
56927;SDS011;60850;52.502;13.426;2023-04-23T04:25:11;20.05;;;12.77;;
56927;SDS011;60850;52.502;13.426;2023-04-23T04:27:38;17.33;;;12.25;;
56927;SDS011;60850;52.502;13.426;2023-04-23T04:30:06;18.48;;;12.02;;
56927;SDS011;60850;52.502;13.426;2023-04-23T04:32:35;16.73;;;11.73;;
56927;SDS011;60850;52.502;13.426;2023-04-23T04:35:03;15.63;;;10.15;;
56927;SDS011;60850;52.502;13.426;2023-04-23T04:37:31;13.38;;;9.48;;
56927;SDS011;60850;52.502;13.426;2023-04-23T04:39:58;16.40;;;9.75;;
56927;SDS011;60850;52.502;13.426;2023-04-23T04:42:25;13.82;;;9.85;;
56927;SDS011;60850;52.502;13.426;2023-04-23T04:44:52;14.40;;;9.75;;
56927;SDS011;60850;52.502;13.426;2023-04-23T04:47:22;11.52;;;8.90;;
56927;SDS011;60850;52.502;13.426;2023-04-23T04:49:51;12.35;;;8.68;;
56927;SDS011;60850;52.502;13.426;2023-04-23T04:52:21;13.13;;;8.32;;
56927;SDS011;60850;52.502;13.426;2023-04-23T04:54:49;11.02;;;8.20;;
56927;SDS011;60850;52.502;13.426;2023-04-23T04:57:16;11.77;;;8.98;;
56927;SDS011;60850;52.502;13.426;2023-04-23T04:59:44;11.32;;;8.32;;
56927;SDS011;60850;52.502;13.426;2023-04-23T05:02:11;12.05;;;8.63;;
56927;SDS011;60850;52.502;13.426;2023-04-23T05:04:38;12.20;;;8.18;;
56927;SDS011;60850;52.502;13.426;2023-04-23T05:07:06;15.60;;;8.02;;
56927;SDS011;60850;52.502;13.426;2023-04-23T05:09:33;12.35;;;7.85;;
56927;SDS011;60850;52.502;13.426;2023-04-23T05:12:00;9.75;;;7.85;;
56927;SDS011;60850;52.502;13.426;2023-04-23T05:14:27;13.25;;;8.13;;
56927;SDS011;60850;52.502;13.426;2023-04-23T05:16:54;12.77;;;7.82;;
56927;SDS011;60850;52.502;13.426;2023-04-23T05:19:21;9.30;;;7.93;;
56927;SDS011;60850;52.502;13.426;2023-04-23T05:21:49;8.30;;;6.57;;
56927;SDS011;60850;52.502;13.426;2023-04-23T05:24:17;11.00;;;7.32;;
56927;SDS011;60850;52.502;13.426;2023-04-23T05:26:44;11.60;;;7.43;;
56927;SDS011;60850;52.502;13.426;2023-04-23T05:29:11;11.80;;;7.57;;
56927;SDS011;60850;52.502;13.426;2023-04-23T05:31:44;11.07;;;7.30;;
56927;SDS011;60850;52.502;13.426;2023-04-23T05:34:11;10.38;;;7.45;;
56927;SDS011;60850;52.502;13.426;2023-04-23T05:36:38;10.98;;;7.47;;
56927;SDS011;60850;52.502;13.426;2023-04-23T05:39:05;9.20;;;7.15;;
56927;SDS011;60850;52.502;13.426;2023-04-23T05:41:34;9.88;;;7.50;;
56927;SDS011;60850;52.502;13.426;2023-04-23T05:44:01;9.85;;;7.20;;
56927;SDS011;60850;52.502;13.426;2023-04-23T05:46:28;11.30;;;8.05;;
56927;SDS011;60850;52.502;13.426;2023-04-23T05:48:55;10.98;;;7.40;;
56927;SDS011;60850;52.502;13.426;2023-04-23T05:51:22;10.55;;;7.25;;
56927;SDS011;60850;52.502;13.426;2023-04-23T05:53:49;9.93;;;7.47;;
56927;SDS011;60850;52.502;13.426;2023-04-23T05:56:16;12.95;;;8.40;;
56927;SDS011;60850;52.502;13.426;2023-04-23T05:58:45;9.90;;;7.60;;
56927;SDS011;60850;52.502;13.426;2023-04-23T06:01:12;9.93;;;6.20;;
56927;SDS011;60850;52.502;13.426;2023-04-23T06:03:39;8.00;;;6.30;;
56927;SDS011;60850;52.502;13.426;2023-04-23T06:06:09;9.98;;;6.13;;
56927;SDS011;60850;52.502;13.426;2023-04-23T06:08:37;7.97;;;6.03;;
56927;SDS011;60850;52.502;13.426;2023-04-23T06:11:04;8.43;;;6.35;;
56927;SDS011;60850;52.502;13.426;2023-04-23T06:13:31;11.02;;;6.10;;
56927;SDS011;60850;52.502;13.426;2023-04-23T06:16:06;8.02;;;6.00;;
56927;SDS011;60850;52.502;13.426;2023-04-23T06:18:33;8.93;;;6.28;;
56927;SDS011;60850;52.502;13.426;2023-04-23T06:21:00;7.45;;;5.38;;
56927;SDS011;60850;52.502;13.426;2023-04-23T06:23:28;8.30;;;5.32;;
56927;SDS011;60850;52.502;13.426;2023-04-23T06:25:55;7.82;;;5.30;;
56927;SDS011;60850;52.502;13.426;2023-04-23T06:28:22;6.95;;;5.43;;
56927;SDS011;60850;52.502;13.426;2023-04-23T06:30:49;7.97;;;5.45;;
56927;SDS011;60850;52.502;13.426;2023-04-23T06:35:47;11.38;;;5.93;;
56927;SDS011;60850;52.502;13.426;2023-04-23T06:38:14;7.95;;;5.47;;
56927;SDS011;60850;52.502;13.426;2023-04-23T06:40:42;6.60;;;5.40;;
56927;SDS011;60850;52.502;13.426;2023-04-23T06:43:10;9.27;;;5.20;;
56927;SDS011;60850;52.502;13.426;2023-04-23T06:45:38;6.68;;;5.32;;
56927;SDS011;60850;52.502;13.426;2023-04-23T06:48:05;7.93;;;5.45;;
56927;SDS011;60850;52.502;13.426;2023-04-23T06:50:32;8.85;;;4.82;;
56927;SDS011;60850;52.502;13.426;2023-04-23T06:53:01;6.53;;;4.93;;
56927;SDS011;60850;52.502;13.426;2023-04-23T06:55:28;5.93;;;4.75;;
56927;SDS011;60850;52.502;13.426;2023-04-23T06:57:56;8.68;;;4.63;;
56927;SDS011;60850;52.502;13.426;2023-04-23T07:00:23;6.07;;;4.50;;
56927;SDS011;60850;52.502;13.426;2023-04-23T07:02:53;6.07;;;4.07;;
56927;SDS011;60850;52.502;13.426;2023-04-23T07:05:20;7.50;;;4.20;;
56927;SDS011;60850;52.502;13.426;2023-04-23T07:07:47;6.00;;;3.95;;
56927;SDS011;60850;52.502;13.426;2023-04-23T07:10:15;6.32;;;4.40;;
56927;SDS011;60850;52.502;13.426;2023-04-23T07:12:42;6.32;;;4.10;;
56927;SDS011;60850;52.502;13.426;2023-04-23T07:15:09;5.03;;;4.22;;
56927;SDS011;60850;52.502;13.426;2023-04-23T07:17:37;4.88;;;4.05;;
56927;SDS011;60850;52.502;13.426;2023-04-23T07:20:04;5.75;;;4.10;;
56927;SDS011;60850;52.502;13.426;2023-04-23T07:22:33;6.07;;;4.35;;
56927;SDS011;60850;52.502;13.426;2023-04-23T07:25:00;5.82;;;4.88;;
56927;SDS011;60850;52.502;13.426;2023-04-23T07:27:30;6.20;;;4.50;;
56927;SDS011;60850;52.502;13.426;2023-04-23T07:29:57;10.35;;;5.70;;
56927;SDS011;60850;52.502;13.426;2023-04-23T07:32:26;6.65;;;5.18;;
56927;SDS011;60850;52.502;13.426;2023-04-23T07:34:53;7.45;;;5.30;;
56927;SDS011;60850;52.502;13.426;2023-04-23T07:37:21;7.43;;;4.78;;
56927;SDS011;60850;52.502;13.426;2023-04-23T07:39:48;6.70;;;4.57;;
56927;SDS011;60850;52.502;13.426;2023-04-23T07:42:15;6.82;;;5.25;;
56927;SDS011;60850;52.502;13.426;2023-04-23T07:44:43;10.48;;;6.40;;
56927;SDS011;60850;52.502;13.426;2023-04-23T07:47:11;7.43;;;5.10;;
56927;SDS011;60850;52.502;13.426;2023-04-23T07:49:38;7.70;;;5.20;;
56927;SDS011;60850;52.502;13.426;2023-04-23T07:52:05;7.60;;;5.53;;
56927;SDS011;60850;52.502;13.426;2023-04-23T07:54:32;7.63;;;5.32;;
56927;SDS011;60850;52.502;13.426;2023-04-23T07:56:59;7.57;;;5.88;;
56927;SDS011;60850;52.502;13.426;2023-04-23T07:59:27;9.02;;;5.10;;
56927;SDS011;60850;52.502;13.426;2023-04-23T08:01:55;8.07;;;5.43;;
56927;SDS011;60850;52.502;13.426;2023-04-23T08:04:23;7.43;;;5.30;;
56927;SDS011;60850;52.502;13.426;2023-04-23T08:06:52;7.50;;;5.47;;
56927;SDS011;60850;52.502;13.426;2023-04-23T08:09:19;7.80;;;5.88;;
56927;SDS011;60850;52.502;13.426;2023-04-23T08:11:46;9.48;;;5.85;;
56927;SDS011;60850;52.502;13.426;2023-04-23T08:14:13;8.15;;;6.15;;
56927;SDS011;60850;52.502;13.426;2023-04-23T08:16:40;9.48;;;6.00;;
56927;SDS011;60850;52.502;13.426;2023-04-23T08:19:08;7.60;;;5.55;;
56927;SDS011;60850;52.502;13.426;2023-04-23T08:21:36;8.13;;;6.38;;
56927;SDS011;60850;52.502;13.426;2023-04-23T08:24:03;9.25;;;6.07;;
56927;SDS011;60850;52.502;13.426;2023-04-23T08:26:32;10.55;;;6.65;;
56927;SDS011;60850;52.502;13.426;2023-04-23T08:28:59;9.05;;;5.97;;
56927;SDS011;60850;52.502;13.426;2023-04-23T08:31:26;8.63;;;6.18;;
56927;SDS011;60850;52.502;13.426;2023-04-23T08:33:53;8.30;;;6.35;;
56927;SDS011;60850;52.502;13.426;2023-04-23T08:36:21;9.10;;;5.82;;
56927;SDS011;60850;52.502;13.426;2023-04-23T08:38:48;9.73;;;5.72;;
56927;SDS011;60850;52.502;13.426;2023-04-23T08:41:17;8.30;;;6.35;;
56927;SDS011;60850;52.502;13.426;2023-04-23T08:43:46;9.50;;;5.85;;
56927;SDS011;60850;52.502;13.426;2023-04-23T08:46:18;8.38;;;5.97;;
56927;SDS011;60850;52.502;13.426;2023-04-23T08:48:45;10.13;;;6.53;;
56927;SDS011;60850;52.502;13.426;2023-04-23T08:51:17;7.70;;;6.03;;
56927;SDS011;60850;52.502;13.426;2023-04-23T08:53:48;8.05;;;6.25;;
56927;SDS011;60850;52.502;13.426;2023-04-23T08:56:18;8.63;;;5.85;;
56927;SDS011;60850;52.502;13.426;2023-04-23T08:58:45;7.10;;;5.93;;
56927;SDS011;60850;52.502;13.426;2023-04-23T09:01:13;7.45;;;5.80;;
56927;SDS011;60850;52.502;13.426;2023-04-23T09:03:40;8.10;;;5.93;;
56927;SDS011;60850;52.502;13.426;2023-04-23T09:06:08;6.72;;;5.32;;
56927;SDS011;60850;52.502;13.426;2023-04-23T09:08:35;7.60;;;6.13;;
56927;SDS011;60850;52.502;13.426;2023-04-23T09:11:04;7.40;;;6.10;;
56927;SDS011;60850;52.502;13.426;2023-04-23T09:13:32;10.07;;;5.80;;
56927;SDS011;60850;52.502;13.426;2023-04-23T09:16:00;6.95;;;5.55;;
56927;SDS011;60850;52.502;13.426;2023-04-23T09:18:27;7.95;;;5.95;;
56927;SDS011;60850;52.502;13.426;2023-04-23T09:20:55;8.05;;;6.43;;
56927;SDS011;60850;52.502;13.426;2023-04-23T09:23:21;8.13;;;6.35;;
56927;SDS011;60850;52.502;13.426;2023-04-23T09:25:49;6.72;;;5.40;;
56927;SDS011;60850;52.502;13.426;2023-04-23T09:28:18;7.55;;;5.47;;
56927;SDS011;60850;52.502;13.426;2023-04-23T09:30:45;7.18;;;5.43;;
56927;SDS011;60850;52.502;13.426;2023-04-23T09:33:15;7.38;;;5.00;;
56927;SDS011;60850;52.502;13.426;2023-04-23T09:35:42;6.65;;;4.88;;
56927;SDS011;60850;52.502;13.426;2023-04-23T09:38:12;6.93;;;4.65;;
56927;SDS011;60850;52.502;13.426;2023-04-23T09:40:40;6.57;;;4.60;;
56927;SDS011;60850;52.502;13.426;2023-04-23T09:43:07;13.77;;;8.00;;
56927;SDS011;60850;52.502;13.426;2023-04-23T09:45:38;7.00;;;4.70;;
56927;SDS011;60850;52.502;13.426;2023-04-23T09:48:13;4.00;;;3.58;;
56927;SDS011;60850;52.502;13.426;2023-04-23T09:50:40;4.80;;;3.55;;
56927;SDS011;60850;52.502;13.426;2023-04-23T09:53:08;3.40;;;2.95;;
56927;SDS011;60850;52.502;13.426;2023-04-23T09:55:36;3.40;;;2.53;;
56927;SDS011;60850;52.502;13.426;2023-04-23T09:58:04;4.68;;;2.70;;
56927;SDS011;60850;52.502;13.426;2023-04-23T10:00:33;2.88;;;2.47;;
56927;SDS011;60850;52.502;13.426;2023-04-23T10:03:02;3.92;;;2.75;;
56927;SDS011;60850;52.502;13.426;2023-04-23T10:05:31;6.63;;;3.60;;
56927;SDS011;60850;52.502;13.426;2023-04-23T10:08:03;3.58;;;3.05;;
56927;SDS011;60850;52.502;13.426;2023-04-23T10:10:32;4.50;;;3.30;;
56927;SDS011;60850;52.502;13.426;2023-04-23T10:13:00;6.00;;;3.50;;
56927;SDS011;60850;52.502;13.426;2023-04-23T10:15:27;4.35;;;3.28;;
56927;SDS011;60850;52.502;13.426;2023-04-23T10:17:54;5.20;;;3.30;;
56927;SDS011;60850;52.502;13.426;2023-04-23T10:20:23;6.30;;;3.63;;
56927;SDS011;60850;52.502;13.426;2023-04-23T10:22:51;4.10;;;3.40;;
56927;SDS011;60850;52.502;13.426;2023-04-23T10:25:20;3.55;;;2.80;;
56927;SDS011;60850;52.502;13.426;2023-04-23T10:27:50;3.92;;;3.17;;
56927;SDS011;60850;52.502;13.426;2023-04-23T10:30:20;4.15;;;3.28;;
56927;SDS011;60850;52.502;13.426;2023-04-23T10:32:48;4.78;;;2.92;;
56927;SDS011;60850;52.502;13.426;2023-04-23T10:35:15;5.90;;;4.18;;
56927;SDS011;60850;52.502;13.426;2023-04-23T10:37:44;8.95;;;4.22;;
56927;SDS011;60850;52.502;13.426;2023-04-23T10:40:13;7.60;;;4.55;;
56927;SDS011;60850;52.502;13.426;2023-04-23T10:42:44;7.03;;;4.68;;
56927;SDS011;60850;52.502;13.426;2023-04-23T10:45:12;11.27;;;5.57;;
56927;SDS011;60850;52.502;13.426;2023-04-23T10:47:41;7.78;;;5.10;;
56927;SDS011;60850;52.502;13.426;2023-04-23T10:50:20;8.93;;;4.90;;
56927;SDS011;60850;52.502;13.426;2023-04-23T10:52:50;6.75;;;4.70;;
56927;SDS011;60850;52.502;13.426;2023-04-23T10:55:19;6.70;;;4.50;;
56927;SDS011;60850;52.502;13.426;2023-04-23T10:57:54;7.00;;;4.70;;
56927;SDS011;60850;52.502;13.426;2023-04-23T11:00:22;6.20;;;4.50;;
56927;SDS011;60850;52.502;13.426;2023-04-23T11:02:52;6.22;;;4.22;;
56927;SDS011;60850;52.502;13.426;2023-04-23T11:05:20;5.25;;;3.97;;
56927;SDS011;60850;52.502;13.426;2023-04-23T11:08:04;5.38;;;4.45;;
56927;SDS011;60850;52.502;13.426;2023-04-23T11:10:32;6.93;;;4.32;;
56927;SDS011;60850;52.502;13.426;2023-04-23T11:18:58;9.63;;;5.80;;
56927;SDS011;60850;52.502;13.426;2023-04-23T11:24:28;7.57;;;5.47;;
56927;SDS011;60850;52.502;13.426;2023-04-23T11:26:57;10.23;;;5.68;;
56927;SDS011;60850;52.502;13.426;2023-04-23T11:29:25;7.72;;;5.82;;
56927;SDS011;60850;52.502;13.426;2023-04-23T11:31:53;8.38;;;5.68;;
56927;SDS011;60850;52.502;13.426;2023-04-23T11:34:21;6.85;;;5.28;;
56927;SDS011;60850;52.502;13.426;2023-04-23T11:36:50;7.45;;;5.53;;
56927;SDS011;60850;52.502;13.426;2023-04-23T11:39:18;8.77;;;5.63;;
56927;SDS011;60850;52.502;13.426;2023-04-23T11:41:47;7.68;;;5.55;;
56927;SDS011;60850;52.502;13.426;2023-04-23T11:44:14;7.35;;;5.35;;
56927;SDS011;60850;52.502;13.426;2023-04-23T11:46:41;7.25;;;5.50;;
56927;SDS011;60850;52.502;13.426;2023-04-23T11:49:08;6.60;;;5.30;;
56927;SDS011;60850;52.502;13.426;2023-04-23T11:51:39;8.05;;;5.95;;
56927;SDS011;60850;52.502;13.426;2023-04-23T11:54:08;7.10;;;5.32;;
56927;SDS011;60850;52.502;13.426;2023-04-23T11:56:35;7.45;;;5.00;;
56927;SDS011;60850;52.502;13.426;2023-04-23T11:59:04;8.90;;;5.85;;
56927;SDS011;60850;52.502;13.426;2023-04-23T12:01:38;10.55;;;6.65;;
56927;SDS011;60850;52.502;13.426;2023-04-23T12:04:13;11.35;;;6.90;;
56927;SDS011;60850;52.502;13.426;2023-04-23T12:06:42;9.65;;;6.10;;
56927;SDS011;60850;52.502;13.426;2023-04-23T12:09:11;11.05;;;5.80;;
56927;SDS011;60850;52.502;13.426;2023-04-23T12:11:39;8.70;;;6.93;;
56927;SDS011;60850;52.502;13.426;2023-04-23T12:14:08;6.20;;;4.70;;
56927;SDS011;60850;52.502;13.426;2023-04-23T12:16:37;7.70;;;5.25;;
56927;SDS011;60850;52.502;13.426;2023-04-23T12:19:08;7.78;;;4.78;;
56927;SDS011;60850;52.502;13.426;2023-04-23T12:21:46;8.43;;;4.93;;
56927;SDS011;60850;52.502;13.426;2023-04-23T12:24:14;8.02;;;3.38;;
56927;SDS011;60850;52.502;13.426;2023-04-23T12:26:41;4.85;;;3.40;;
56927;SDS011;60850;52.502;13.426;2023-04-23T12:29:11;4.18;;;3.22;;
56927;SDS011;60850;52.502;13.426;2023-04-23T12:31:39;3.05;;;2.60;;
56927;SDS011;60850;52.502;13.426;2023-04-23T12:36:43;3.47;;;2.30;;
56927;SDS011;60850;52.502;13.426;2023-04-23T12:39:18;4.15;;;2.85;;
56927;SDS011;60850;52.502;13.426;2023-04-23T12:41:45;2.80;;;2.13;;
56927;SDS011;60850;52.502;13.426;2023-04-23T12:44:14;2.55;;;2.10;;
56927;SDS011;60850;52.502;13.426;2023-04-23T12:46:41;3.97;;;2.22;;
56927;SDS011;60850;52.502;13.426;2023-04-23T12:49:08;2.65;;;1.90;;
56927;SDS011;60850;52.502;13.426;2023-04-23T12:51:35;2.70;;;1.80;;
56927;SDS011;60850;52.502;13.426;2023-04-23T12:54:03;2.35;;;1.60;;
56927;SDS011;60850;52.502;13.426;2023-04-23T12:56:30;1.88;;;1.45;;
56927;SDS011;60850;52.502;13.426;2023-04-23T12:58:57;2.85;;;2.10;;
56927;SDS011;60850;52.502;13.426;2023-04-23T13:01:28;1.48;;;1.30;;
56927;SDS011;60850;52.502;13.426;2023-04-23T13:03:55;5.22;;;1.75;;
56927;SDS011;60850;52.502;13.426;2023-04-23T13:06:22;4.55;;;1.92;;
56927;SDS011;60850;52.502;13.426;2023-04-23T13:08:50;2.90;;;1.70;;
56927;SDS011;60850;52.502;13.426;2023-04-23T13:11:19;2.67;;;1.58;;
56927;SDS011;60850;52.502;13.426;2023-04-23T13:13:46;2.17;;;1.42;;
56927;SDS011;60850;52.502;13.426;2023-04-23T13:16:13;2.65;;;1.63;;
56927;SDS011;60850;52.502;13.426;2023-04-23T13:18:42;2.80;;;1.73;;
56927;SDS011;60850;52.502;13.426;2023-04-23T13:21:09;2.55;;;1.90;;
56927;SDS011;60850;52.502;13.426;2023-04-23T13:23:36;1.98;;;1.70;;
56927;SDS011;60850;52.502;13.426;2023-04-23T13:26:03;4.90;;;2.30;;
56927;SDS011;60850;52.502;13.426;2023-04-23T13:28:31;2.28;;;1.67;;
56927;SDS011;60850;52.502;13.426;2023-04-23T13:31:01;3.67;;;2.50;;
56927;SDS011;60850;52.502;13.426;2023-04-23T13:33:28;4.75;;;2.28;;
56927;SDS011;60850;52.502;13.426;2023-04-23T13:35:57;2.42;;;2.10;;
56927;SDS011;60850;52.502;13.426;2023-04-23T13:38:24;2.22;;;1.90;;
56927;SDS011;60850;52.502;13.426;2023-04-23T13:40:52;5.80;;;2.65;;
56927;SDS011;60850;52.502;13.426;2023-04-23T13:43:19;5.55;;;2.40;;
56927;SDS011;60850;52.502;13.426;2023-04-23T13:45:46;4.20;;;2.65;;
56927;SDS011;60850;52.502;13.426;2023-04-23T13:48:13;3.38;;;1.80;;
56927;SDS011;60850;52.502;13.426;2023-04-23T13:50:40;2.63;;;1.83;;
56927;SDS011;60850;52.502;13.426;2023-04-23T13:53:10;2.88;;;2.10;;
56927;SDS011;60850;52.502;13.426;2023-04-23T13:55:38;3.10;;;2.17;;
56927;SDS011;60850;52.502;13.426;2023-04-23T13:58:06;4.63;;;1.90;;
56927;SDS011;60850;52.502;13.426;2023-04-23T14:00:33;4.22;;;2.28;;
56927;SDS011;60850;52.502;13.426;2023-04-23T14:03:01;3.05;;;2.00;;
56927;SDS011;60850;52.502;13.426;2023-04-23T14:05:27;3.47;;;2.20;;
56927;SDS011;60850;52.502;13.426;2023-04-23T14:07:56;3.47;;;2.10;;
56927;SDS011;60850;52.502;13.426;2023-04-23T14:10:24;3.28;;;2.05;;
56927;SDS011;60850;52.502;13.426;2023-04-23T14:12:51;3.08;;;2.17;;
56927;SDS011;60850;52.502;13.426;2023-04-23T14:15:18;3.72;;;2.60;;
56927;SDS011;60850;52.502;13.426;2023-04-23T14:17:46;5.70;;;2.60;;
56927;SDS011;60850;52.502;13.426;2023-04-23T14:20:13;4.63;;;3.10;;
56927;SDS011;60850;52.502;13.426;2023-04-23T14:22:41;3.75;;;2.78;;
56927;SDS011;60850;52.502;13.426;2023-04-23T14:25:09;3.58;;;2.10;;
56927;SDS011;60850;52.502;13.426;2023-04-23T14:27:43;3.38;;;2.17;;
56927;SDS011;60850;52.502;13.426;2023-04-23T14:30:15;2.88;;;2.42;;
56927;SDS011;60850;52.502;13.426;2023-04-23T14:32:44;3.42;;;2.30;;
56927;SDS011;60850;52.502;13.426;2023-04-23T14:35:11;2.35;;;2.00;;
56927;SDS011;60850;52.502;13.426;2023-04-23T14:37:39;2.55;;;2.20;;
56927;SDS011;60850;52.502;13.426;2023-04-23T14:40:10;3.85;;;2.10;;
56927;SDS011;60850;52.502;13.426;2023-04-23T14:42:45;2.90;;;2.35;;
56927;SDS011;60850;52.502;13.426;2023-04-23T14:45:13;2.83;;;1.63;;